PRM4211 KDEN-CYYZ
Flight info
| Callsign | PRM4211 |
|---|---|
| Flight time | 2h 24m |
| Altitude | 35000 |
| Route | EEONS8 WYNDM DCT HCT DCT LNK DCT DSM DCT OBK DCT PMM DCT QWERI NUBER6 |
| Aircraft | B77L/H-SDE1E2E3FGHIJ2J3J4J5M1RWXY/LB1D1 |
Departure
| Time | 2026-05-03 20:32 |
|---|---|
| Airport | Denver International Airport (KDEN) |
Arrival
| Time | 2026-05-03 22:56 |
|---|---|
| Airport | Toronto Pearson International Airport (CYYZ) |
| Time | Latitude | Longitude | Altitude | Speed | Heading |
|---|---|---|---|---|---|
| 2026-05-03 20:15 | 39.83013 | -104.67643 | 5400 ft | 0 kts | 89° |
| 2026-05-03 20:15 | 39.83013 | -104.67642 | 5400 ft | 0 kts | 89° |
| 2026-05-03 20:15 | 39.83013 | -104.67631 | 5400 ft | 3 kts | 89° |
| 2026-05-03 20:16 | 39.83013 | -104.67573 | 5400 ft | 9 kts | 89° |
| 2026-05-03 20:16 | 39.83012 | -104.67459 | 5400 ft | 15 kts | 91° |
| 2026-05-03 20:16 | 39.83006 | -104.67312 | 5400 ft | 17 kts | 100° |
| 2026-05-03 20:16 | 39.82954 | -104.67162 | 5402 ft | 17 kts | 111° |
| 2026-05-03 20:17 | 39.82938 | -104.67003 | 5404 ft | 18 kts | 91° |
| 2026-05-03 20:17 | 39.82932 | -104.66835 | 5413 ft | 17 kts | 90° |
| 2026-05-03 20:17 | 39.82935 | -104.66676 | 5423 ft | 18 kts | 90° |
| 2026-05-03 20:17 | 39.82932 | -104.66504 | 5430 ft | 21 kts | 90° |
| 2026-05-03 20:18 | 39.82942 | -104.66311 | 5431 ft | 19 kts | 62° |
| 2026-05-03 20:18 | 39.83057 | -104.66267 | 5431 ft | 16 kts | 1° |
| 2026-05-03 20:18 | 39.83164 | -104.66265 | 5431 ft | 14 kts | 359° |
| 2026-05-03 20:18 | 39.83257 | -104.66264 | 5431 ft | 13 kts | 0° |
| 2026-05-03 20:19 | 39.83357 | -104.66264 | 5429 ft | 15 kts | 0° |
| 2026-05-03 20:19 | 39.83475 | -104.66262 | 5428 ft | 18 kts | 0° |
| 2026-05-03 20:19 | 39.83607 | -104.66262 | 5427 ft | 19 kts | 359° |
| 2026-05-03 20:19 | 39.83749 | -104.66260 | 5425 ft | 21 kts | 1° |
| 2026-05-03 20:20 | 39.83906 | -104.66258 | 5420 ft | 22 kts | 359° |
| 2026-05-03 20:20 | 39.84059 | -104.66257 | 5415 ft | 21 kts | 1° |
| 2026-05-03 20:20 | 39.84205 | -104.66253 | 5411 ft | 20 kts | 0° |
| 2026-05-03 20:20 | 39.84346 | -104.66252 | 5406 ft | 19 kts | 360° |
| 2026-05-03 20:21 | 39.84479 | -104.66252 | 5402 ft | 18 kts | 360° |
| 2026-05-03 20:21 | 39.84605 | -104.66251 | 5400 ft | 16 kts | 0° |
| 2026-05-03 20:21 | 39.84713 | -104.66250 | 5400 ft | 14 kts | 0° |
| 2026-05-03 20:21 | 39.84805 | -104.66247 | 5399 ft | 12 kts | 1° |
| 2026-05-03 20:22 | 39.84893 | -104.66244 | 5398 ft | 14 kts | 1° |
| 2026-05-03 20:22 | 39.85004 | -104.66238 | 5397 ft | 17 kts | 1° |
| 2026-05-03 20:22 | 39.85135 | -104.66241 | 5396 ft | 20 kts | 358° |
| 2026-05-03 20:22 | 39.85272 | -104.66257 | 5395 ft | 17 kts | 323° |
| 2026-05-03 20:23 | 39.85292 | -104.66413 | 5387 ft | 19 kts | 271° |
| 2026-05-03 20:23 | 39.85307 | -104.66545 | 5384 ft | 11 kts | 314° |
| 2026-05-03 20:23 | 39.85377 | -104.66554 | 5384 ft | 9 kts | 4° |
| 2026-05-03 20:23 | 39.85450 | -104.66560 | 5384 ft | 12 kts | 343° |
| 2026-05-03 20:24 | 39.85544 | -104.66590 | 5382 ft | 15 kts | 334° |
| 2026-05-03 20:24 | 39.85587 | -104.66720 | 5382 ft | 17 kts | 271° |
| 2026-05-03 20:24 | 39.85587 | -104.66888 | 5382 ft | 19 kts | 270° |
| 2026-05-03 20:24 | 39.85589 | -104.67070 | 5382 ft | 20 kts | 271° |
| 2026-05-03 20:25 | 39.85590 | -104.67265 | 5382 ft | 22 kts | 270° |
| 2026-05-03 20:25 | 39.85592 | -104.67474 | 5382 ft | 23 kts | 270° |
| 2026-05-03 20:25 | 39.85591 | -104.67669 | 5382 ft | 19 kts | 270° |
| 2026-05-03 20:25 | 39.85593 | -104.67834 | 5382 ft | 16 kts | 271° |
| 2026-05-03 20:26 | 39.85598 | -104.67973 | 5382 ft | 14 kts | 273° |
| 2026-05-03 20:26 | 39.85598 | -104.68099 | 5382 ft | 13 kts | 267° |
| 2026-05-03 20:26 | 39.85593 | -104.68225 | 5379 ft | 14 kts | 266° |
| 2026-05-03 20:26 | 39.85595 | -104.68368 | 5376 ft | 16 kts | 275° |
| 2026-05-03 20:27 | 39.85580 | -104.68497 | 5376 ft | 14 kts | 216° |
| 2026-05-03 20:27 | 39.85486 | -104.68513 | 5376 ft | 13 kts | 180° |
| 2026-05-03 20:27 | 39.85383 | -104.68515 | 5376 ft | 16 kts | 181° |
| 2026-05-03 20:27 | 39.85261 | -104.68520 | 5376 ft | 16 kts | 183° |
| 2026-05-03 20:28 | 39.85205 | -104.68616 | 5374 ft | 15 kts | 266° |
| 2026-05-03 20:28 | 39.85201 | -104.68764 | 5367 ft | 18 kts | 268° |
| 2026-05-03 20:28 | 39.85196 | -104.68946 | 5358 ft | 20 kts | 268° |
| 2026-05-03 20:28 | 39.85193 | -104.69122 | 5353 ft | 20 kts | 269° |
| 2026-05-03 20:29 | 39.85200 | -104.69322 | 5342 ft | 22 kts | 272° |
| 2026-05-03 20:29 | 39.85202 | -104.69457 | 5342 ft | 10 kts | 270° |
| 2026-05-03 20:29 | 39.85203 | -104.69488 | 5342 ft | 0 kts | 270° |
| 2026-05-03 20:30 | 39.85203 | -104.69497 | 5342 ft | 3 kts | 271° |
| 2026-05-03 20:30 | 39.85204 | -104.69546 | 5342 ft | 7 kts | 271° |
| 2026-05-03 20:30 | 39.85211 | -104.69633 | 5342 ft | 11 kts | 296° |
| 2026-05-03 20:30 | 39.85321 | -104.69670 | 5342 ft | 33 kts | 0° |
| 2026-05-03 20:31 | 39.85791 | -104.69668 | 5337 ft | 100 kts | 360° |
| 2026-05-03 20:31 | 39.86712 | -104.69659 | 5335 ft | 159 kts | 360° |
| 2026-05-03 20:31 | 39.87968 | -104.69640 | 5462 ft | 193 kts | 1° |
| 2026-05-03 20:31 | 39.89315 | -104.69498 | 5940 ft | 200 kts | 1° |
| 2026-05-03 20:32 | 39.90676 | -104.69004 | 6705 ft | 205 kts | 20° |
| 2026-05-03 20:32 | 39.91924 | -104.67936 | 7017 ft | 225 kts | 39° |
| 2026-05-03 20:32 | 39.92928 | -104.66239 | 7279 ft | 247 kts | 56° |
| 2026-05-03 20:32 | 39.93777 | -104.64217 | 7545 ft | 267 kts | 59° |
| 2026-05-03 20:33 | 39.94573 | -104.61958 | 7950 ft | 280 kts | 66° |
| 2026-05-03 20:33 | 39.94954 | -104.59414 | 8484 ft | 291 kts | 84° |
| 2026-05-03 20:33 | 39.95031 | -104.56792 | 9252 ft | 289 kts | 86° |
| 2026-05-03 20:33 | 39.95091 | -104.54102 | 9744 ft | 302 kts | 86° |
| 2026-05-03 20:34 | 39.95162 | -104.51344 | 9973 ft | 309 kts | 85° |
| 2026-05-03 20:34 | 39.95242 | -104.48514 | 10007 ft | 326 kts | 86° |
| 2026-05-03 20:34 | 39.95331 | -104.45397 | 9972 ft | 357 kts | 86° |
| 2026-05-03 20:34 | 39.95427 | -104.42046 | 9959 ft | 385 kts | 86° |
| 2026-05-03 20:35 | 39.95544 | -104.38448 | 9984 ft | 406 kts | 84° |
| 2026-05-03 20:35 | 39.95808 | -104.34772 | 10659 ft | 407 kts | 83° |
| 2026-05-03 20:35 | 39.96078 | -104.31160 | 11416 ft | 407 kts | 83° |
| 2026-05-03 20:35 | 39.96350 | -104.27471 | 11853 ft | 410 kts | 83° |
| 2026-05-03 20:36 | 39.96616 | -104.23777 | 11937 ft | 413 kts | 83° |
| 2026-05-03 20:36 | 39.96882 | -104.20027 | 11944 ft | 412 kts | 83° |
| 2026-05-03 20:36 | 39.97143 | -104.16315 | 11942 ft | 412 kts | 83° |
| 2026-05-03 20:36 | 39.97451 | -104.12609 | 12028 ft | 421 kts | 81° |
| 2026-05-03 20:37 | 39.97881 | -104.08813 | 12806 ft | 421 kts | 80° |
| 2026-05-03 20:37 | 39.98301 | -104.05110 | 13769 ft | 416 kts | 80° |
| 2026-05-03 20:37 | 39.98716 | -104.01398 | 14632 ft | 417 kts | 80° |
| 2026-05-03 20:37 | 39.99133 | -103.97639 | 15386 ft | 421 kts | 81° |
| 2026-05-03 20:38 | 39.99546 | -103.93876 | 16123 ft | 425 kts | 81° |
| 2026-05-03 20:38 | 39.99995 | -103.90043 | 16829 ft | 429 kts | 78° |
| 2026-05-03 20:38 | 40.00610 | -103.86212 | 17549 ft | 434 kts | 76° |
| 2026-05-03 20:38 | 40.01238 | -103.82397 | 18262 ft | 438 kts | 76° |
| 2026-05-03 20:39 | 40.01875 | -103.78476 | 18984 ft | 443 kts | 77° |
| 2026-05-03 20:39 | 40.02517 | -103.74529 | 19708 ft | 447 kts | 76° |
| 2026-05-03 20:39 | 40.03178 | -103.70579 | 20387 ft | 452 kts | 76° |
| 2026-05-03 20:39 | 40.03849 | -103.66554 | 21024 ft | 457 kts | 76° |
| 2026-05-03 20:40 | 40.04518 | -103.62508 | 21639 ft | 463 kts | 76° |
| 2026-05-03 20:40 | 40.05201 | -103.58366 | 22253 ft | 468 kts | 76° |
| 2026-05-03 20:40 | 40.05877 | -103.54239 | 22836 ft | 473 kts | 76° |
| 2026-05-03 20:40 | 40.06569 | -103.50003 | 23403 ft | 478 kts | 76° |
| 2026-05-03 20:41 | 40.07260 | -103.45760 | 23946 ft | 484 kts | 76° |
| 2026-05-03 20:41 | 40.07958 | -103.41458 | 24482 ft | 489 kts | 76° |
| 2026-05-03 20:41 | 40.08662 | -103.37104 | 25006 ft | 494 kts | 76° |
| 2026-05-03 20:41 | 40.09377 | -103.32671 | 25545 ft | 499 kts | 77° |
| 2026-05-03 20:42 | 40.10087 | -103.28258 | 26053 ft | 504 kts | 77° |
| 2026-05-03 20:42 | 40.10809 | -103.23757 | 26572 ft | 508 kts | 77° |
| 2026-05-03 20:42 | 40.11530 | -103.19254 | 27101 ft | 513 kts | 77° |
| 2026-05-03 20:42 | 40.12262 | -103.14665 | 27631 ft | 517 kts | 77° |
| 2026-05-03 20:43 | 40.12997 | -103.10043 | 28156 ft | 522 kts | 77° |
| 2026-05-03 20:43 | 40.13731 | -103.05419 | 28683 ft | 527 kts | 77° |
| 2026-05-03 20:43 | 40.14472 | -103.00734 | 29211 ft | 531 kts | 76° |
| 2026-05-03 20:43 | 40.15217 | -102.96008 | 29872 ft | 532 kts | 76° |
| 2026-05-03 20:44 | 40.15969 | -102.91225 | 30643 ft | 530 kts | 76° |
| 2026-05-03 20:44 | 40.16703 | -102.86548 | 31381 ft | 527 kts | 76° |
| 2026-05-03 20:44 | 40.17441 | -102.81824 | 32076 ft | 526 kts | 76° |
| 2026-05-03 20:44 | 40.18171 | -102.77149 | 32711 ft | 527 kts | 76° |
| 2026-05-03 20:45 | 40.18898 | -102.72470 | 33338 ft | 526 kts | 76° |
| 2026-05-03 20:45 | 40.19627 | -102.67771 | 33984 ft | 526 kts | 76° |
| 2026-05-03 20:45 | 40.20345 | -102.63136 | 34597 ft | 525 kts | 76° |
| 2026-05-03 20:45 | 40.21071 | -102.58430 | 35072 ft | 528 kts | 76° |
| 2026-05-03 20:46 | 40.21801 | -102.53695 | 35151 ft | 540 kts | 76° |
| 2026-05-03 20:46 | 40.22551 | -102.48814 | 35174 ft | 551 kts | 76° |
| 2026-05-03 20:46 | 40.23307 | -102.43869 | 35047 ft | 552 kts | 76° |
| 2026-05-03 20:47 | 40.24796 | -102.34072 | 34994 ft | 551 kts | 76° |
| 2026-05-03 20:47 | 40.26284 | -102.24233 | 34939 ft | 550 kts | 76° |
| 2026-05-03 20:48 | 40.27757 | -102.14445 | 34940 ft | 551 kts | 76° |
| 2026-05-03 20:48 | 40.29219 | -102.04662 | 34976 ft | 551 kts | 76° |
| 2026-05-03 20:49 | 40.30685 | -101.94792 | 34978 ft | 550 kts | 76° |
| 2026-05-03 20:49 | 40.32143 | -101.84924 | 34967 ft | 550 kts | 76° |
| 2026-05-03 20:50 | 40.33584 | -101.75108 | 34969 ft | 551 kts | 76° |
| 2026-05-03 20:50 | 40.35018 | -101.65272 | 34976 ft | 551 kts | 76° |
| 2026-05-03 20:51 | 40.36442 | -101.55445 | 34975 ft | 551 kts | 76° |
| 2026-05-03 20:51 | 40.37863 | -101.45584 | 34975 ft | 551 kts | 76° |
| 2026-05-03 20:52 | 40.39278 | -101.35716 | 34975 ft | 551 kts | 76° |
| 2026-05-03 20:52 | 40.40686 | -101.25855 | 34959 ft | 552 kts | 77° |
| 2026-05-03 20:53 | 40.42083 | -101.16016 | 34954 ft | 552 kts | 77° |
| 2026-05-03 20:53 | 40.43477 | -101.06131 | 34951 ft | 552 kts | 77° |
| 2026-05-03 20:54 | 40.44864 | -100.96230 | 34944 ft | 552 kts | 77° |
| 2026-05-03 20:54 | 40.46859 | -100.81333 | 34946 ft | 553 kts | 77° |
| 2026-05-03 20:55 | 40.48137 | -100.71440 | 34967 ft | 553 kts | 77° |
| 2026-05-03 20:55 | 40.49416 | -100.61495 | 34978 ft | 553 kts | 77° |
| 2026-05-03 20:56 | 40.50686 | -100.51553 | 34975 ft | 553 kts | 77° |
| 2026-05-03 20:56 | 40.51939 | -100.41689 | 34964 ft | 553 kts | 77° |
| 2026-05-03 20:57 | 40.53197 | -100.31710 | 34943 ft | 553 kts | 78° |
| 2026-05-03 20:57 | 40.54442 | -100.21771 | 34935 ft | 553 kts | 77° |
| 2026-05-03 20:58 | 40.55677 | -100.11843 | 34934 ft | 553 kts | 77° |
| 2026-05-03 20:58 | 40.56903 | -100.01910 | 34935 ft | 552 kts | 77° |
| 2026-05-03 20:59 | 40.58127 | -99.91931 | 34932 ft | 553 kts | 77° |
| 2026-05-03 20:59 | 40.59337 | -99.81983 | 34935 ft | 552 kts | 77° |
| 2026-05-03 21:00 | 40.60333 | -99.73735 | 34938 ft | 552 kts | 77° |
| 2026-05-03 21:00 | 40.61730 | -99.62090 | 34941 ft | 553 kts | 77° |
| 2026-05-03 21:01 | 40.62917 | -99.52115 | 34943 ft | 553 kts | 77° |
| 2026-05-03 21:01 | 40.64099 | -99.42100 | 34946 ft | 553 kts | 77° |
| 2026-05-03 21:02 | 40.65271 | -99.32101 | 34940 ft | 554 kts | 78° |
| 2026-05-03 21:02 | 40.66437 | -99.22067 | 34938 ft | 555 kts | 78° |
| 2026-05-03 21:03 | 40.67597 | -99.12008 | 34938 ft | 555 kts | 78° |
| 2026-05-03 21:03 | 40.68748 | -99.01956 | 34915 ft | 559 kts | 78° |
| 2026-05-03 21:04 | 40.69898 | -98.91825 | 34917 ft | 564 kts | 78° |
| 2026-05-03 21:04 | 40.71055 | -98.81550 | 34951 ft | 564 kts | 78° |
| 2026-05-03 21:05 | 40.72189 | -98.71389 | 34951 ft | 563 kts | 78° |
| 2026-05-03 21:05 | 40.73324 | -98.61140 | 34941 ft | 564 kts | 78° |
| 2026-05-03 21:06 | 40.74443 | -98.50958 | 34939 ft | 564 kts | 78° |
| 2026-05-03 21:06 | 40.75559 | -98.40711 | 34939 ft | 564 kts | 78° |
| 2026-05-03 21:07 | 40.76660 | -98.30512 | 34928 ft | 564 kts | 78° |
| 2026-05-03 21:07 | 40.77759 | -98.20250 | 34927 ft | 564 kts | 78° |
| 2026-05-03 21:08 | 40.78843 | -98.10040 | 34926 ft | 564 kts | 78° |
| 2026-05-03 21:08 | 40.79924 | -97.99778 | 34927 ft | 564 kts | 78° |
| 2026-05-03 21:09 | 40.80991 | -97.89545 | 34929 ft | 564 kts | 78° |
| 2026-05-03 21:09 | 40.82047 | -97.79333 | 34938 ft | 564 kts | 78° |
| 2026-05-03 21:10 | 40.83098 | -97.69086 | 34939 ft | 565 kts | 78° |
| 2026-05-03 21:10 | 40.84138 | -97.58843 | 34927 ft | 565 kts | 78° |
| 2026-05-03 21:11 | 40.85174 | -97.48553 | 34926 ft | 565 kts | 78° |
| 2026-05-03 21:11 | 40.86192 | -97.38339 | 34930 ft | 566 kts | 78° |
| 2026-05-03 21:12 | 40.87214 | -97.28010 | 34915 ft | 566 kts | 78° |
| 2026-05-03 21:12 | 40.88219 | -97.17738 | 34913 ft | 566 kts | 78° |
| 2026-05-03 21:13 | 40.89222 | -97.07401 | 34912 ft | 567 kts | 78° |
| 2026-05-03 21:13 | 40.90214 | -96.97071 | 34920 ft | 567 kts | 78° |
| 2026-05-03 21:14 | 40.91191 | -96.86806 | 34930 ft | 567 kts | 78° |
| 2026-05-03 21:14 | 40.92169 | -96.76422 | 34935 ft | 567 kts | 78° |
| 2026-05-03 21:15 | 40.93521 | -96.66281 | 34940 ft | 562 kts | 70° |
| 2026-05-03 21:15 | 40.95438 | -96.56237 | 34933 ft | 562 kts | 70° |
| 2026-05-03 21:16 | 40.97288 | -96.46294 | 34932 ft | 562 kts | 70° |
| 2026-05-03 21:16 | 40.99117 | -96.36243 | 34929 ft | 562 kts | 70° |
| 2026-05-03 21:17 | 41.00921 | -96.26173 | 34911 ft | 563 kts | 71° |
| 2026-05-03 21:17 | 41.02709 | -96.16077 | 34912 ft | 563 kts | 71° |
| 2026-05-03 21:18 | 41.04477 | -96.06007 | 34917 ft | 563 kts | 71° |
| 2026-05-03 21:18 | 41.06235 | -95.95918 | 34919 ft | 564 kts | 71° |
| 2026-05-03 21:19 | 41.07989 | -95.85785 | 34918 ft | 564 kts | 71° |
| 2026-05-03 21:19 | 41.09732 | -95.75652 | 34918 ft | 564 kts | 71° |
| 2026-05-03 21:20 | 41.11462 | -95.65538 | 34925 ft | 563 kts | 71° |
| 2026-05-03 21:20 | 41.13176 | -95.55456 | 34920 ft | 563 kts | 71° |
| 2026-05-03 21:21 | 41.14900 | -95.45256 | 34918 ft | 563 kts | 71° |
| 2026-05-03 21:21 | 41.16604 | -95.35114 | 34921 ft | 563 kts | 71° |
| 2026-05-03 21:22 | 41.18290 | -95.25030 | 34909 ft | 564 kts | 72° |
| 2026-05-03 21:22 | 41.19981 | -95.14848 | 34910 ft | 564 kts | 72° |
| 2026-05-03 21:23 | 41.21652 | -95.04730 | 34910 ft | 563 kts | 72° |
| 2026-05-03 21:23 | 41.23320 | -94.94569 | 34907 ft | 563 kts | 72° |
| 2026-05-03 21:24 | 41.24973 | -94.84437 | 34902 ft | 562 kts | 72° |
| 2026-05-03 21:24 | 41.26611 | -94.74345 | 34898 ft | 562 kts | 72° |
| 2026-05-03 21:25 | 41.28251 | -94.64179 | 34899 ft | 562 kts | 72° |
| 2026-05-03 21:25 | 41.29871 | -94.54073 | 34899 ft | 561 kts | 72° |
| 2026-05-03 21:26 | 41.31492 | -94.43906 | 34897 ft | 561 kts | 72° |
| 2026-05-03 21:26 | 41.33096 | -94.33785 | 34893 ft | 560 kts | 72° |
| 2026-05-03 21:27 | 41.34695 | -94.23628 | 34880 ft | 561 kts | 72° |
| 2026-05-03 21:27 | 41.36288 | -94.13453 | 34880 ft | 561 kts | 72° |
| 2026-05-03 21:28 | 41.37866 | -94.03308 | 34880 ft | 561 kts | 72° |
| 2026-05-03 21:28 | 41.39438 | -93.93143 | 34876 ft | 560 kts | 73° |
| 2026-05-03 21:29 | 41.40992 | -93.83030 | 34871 ft | 560 kts | 73° |
| 2026-05-03 21:29 | 41.42539 | -93.72895 | 34869 ft | 559 kts | 73° |
| 2026-05-03 21:30 | 41.44086 | -93.62743 | 34869 ft | 558 kts | 72° |
| 2026-05-03 21:30 | 41.45725 | -93.52715 | 34868 ft | 557 kts | 72° |
| 2026-05-03 21:31 | 41.47375 | -93.42622 | 34868 ft | 557 kts | 72° |
| 2026-05-03 21:31 | 41.49017 | -93.32491 | 34856 ft | 557 kts | 72° |
| 2026-05-03 21:32 | 41.50635 | -93.22438 | 34845 ft | 557 kts | 72° |
| 2026-05-03 21:32 | 41.52259 | -93.12283 | 34843 ft | 557 kts | 72° |
| 2026-05-03 21:33 | 41.53863 | -93.02182 | 34845 ft | 556 kts | 72° |
| 2026-05-03 21:33 | 41.55452 | -92.92114 | 34846 ft | 556 kts | 72° |
| 2026-05-03 21:34 | 41.57029 | -92.82063 | 34845 ft | 555 kts | 72° |
| 2026-05-03 21:34 | 41.58601 | -92.71982 | 34847 ft | 555 kts | 72° |
| 2026-05-03 21:35 | 41.60165 | -92.61881 | 34847 ft | 554 kts | 73° |
| 2026-05-03 21:35 | 41.61718 | -92.51795 | 34848 ft | 554 kts | 73° |
| 2026-05-03 21:36 | 41.63250 | -92.41786 | 34849 ft | 554 kts | 73° |
| 2026-05-03 21:36 | 41.64786 | -92.31686 | 34836 ft | 553 kts | 74° |
| 2026-05-03 21:37 | 41.66316 | -92.21568 | 34830 ft | 553 kts | 74° |
| 2026-05-03 21:37 | 41.67819 | -92.11558 | 34826 ft | 552 kts | 74° |
| 2026-05-03 21:38 | 41.69328 | -92.01447 | 34824 ft | 551 kts | 74° |
| 2026-05-03 21:38 | 41.70819 | -91.91400 | 34821 ft | 552 kts | 74° |
| 2026-05-03 21:39 | 41.72295 | -91.81379 | 34816 ft | 552 kts | 74° |
| 2026-05-03 21:39 | 41.73777 | -91.71264 | 34811 ft | 551 kts | 74° |
| 2026-05-03 21:40 | 41.75241 | -91.61198 | 34805 ft | 551 kts | 74° |
| 2026-05-03 21:40 | 41.76702 | -91.51086 | 34806 ft | 550 kts | 74° |
| 2026-05-03 21:41 | 41.78144 | -91.41050 | 34810 ft | 550 kts | 74° |
| 2026-05-03 21:41 | 41.79579 | -91.30991 | 34800 ft | 551 kts | 75° |
| 2026-05-03 21:42 | 41.81000 | -91.20971 | 34799 ft | 551 kts | 75° |
| 2026-05-03 21:42 | 41.82420 | -91.10882 | 34797 ft | 551 kts | 75° |
| 2026-05-03 21:43 | 41.83828 | -91.00816 | 34796 ft | 550 kts | 75° |
| 2026-05-03 21:43 | 41.85224 | -90.90766 | 34792 ft | 550 kts | 75° |
| 2026-05-03 21:44 | 41.86611 | -90.80717 | 34788 ft | 549 kts | 75° |
| 2026-05-03 21:44 | 41.87996 | -90.70618 | 34788 ft | 548 kts | 75° |
| 2026-05-03 21:45 | 41.89355 | -90.60634 | 34791 ft | 546 kts | 75° |
| 2026-05-03 21:45 | 41.90708 | -90.50624 | 34795 ft | 545 kts | 75° |
| 2026-05-03 21:46 | 41.92050 | -90.40631 | 34799 ft | 544 kts | 75° |
| 2026-05-03 21:46 | 41.93390 | -90.30588 | 34788 ft | 543 kts | 76° |
| 2026-05-03 21:47 | 41.94704 | -90.20667 | 34785 ft | 541 kts | 76° |
| 2026-05-03 21:47 | 41.96007 | -90.10762 | 34784 ft | 541 kts | 76° |
| 2026-05-03 21:48 | 41.97310 | -90.00787 | 34783 ft | 540 kts | 76° |
| 2026-05-03 21:48 | 41.98590 | -89.90919 | 34785 ft | 540 kts | 76° |
| 2026-05-03 21:49 | 41.99869 | -89.80988 | 34788 ft | 540 kts | 76° |
| 2026-05-03 21:49 | 42.01143 | -89.71027 | 34795 ft | 540 kts | 76° |
| 2026-05-03 21:50 | 42.02404 | -89.61095 | 34803 ft | 540 kts | 76° |
| 2026-05-03 21:50 | 42.03661 | -89.51122 | 34807 ft | 539 kts | 76° |
| 2026-05-03 21:51 | 42.04905 | -89.41180 | 34809 ft | 539 kts | 76° |
| 2026-05-03 21:51 | 42.06129 | -89.31325 | 34803 ft | 539 kts | 77° |
| 2026-05-03 21:52 | 42.07337 | -89.21531 | 34804 ft | 538 kts | 77° |
| 2026-05-03 21:52 | 42.08542 | -89.11685 | 34809 ft | 538 kts | 77° |
| 2026-05-03 21:53 | 42.09723 | -89.01970 | 34813 ft | 538 kts | 77° |
| 2026-05-03 21:53 | 42.10923 | -88.92027 | 34821 ft | 538 kts | 77° |
| 2026-05-03 21:54 | 42.12112 | -88.82092 | 34822 ft | 538 kts | 77° |
| 2026-05-03 21:54 | 42.13292 | -88.72158 | 34821 ft | 538 kts | 77° |
| 2026-05-03 21:55 | 42.14465 | -88.62212 | 34820 ft | 537 kts | 77° |
| 2026-05-03 21:55 | 42.15623 | -88.52319 | 34821 ft | 538 kts | 77° |
| 2026-05-03 21:56 | 42.16775 | -88.42397 | 34822 ft | 538 kts | 77° |
| 2026-05-03 21:56 | 42.17925 | -88.32418 | 34818 ft | 537 kts | 78° |
| 2026-05-03 21:57 | 42.19066 | -88.22424 | 34817 ft | 537 kts | 78° |
| 2026-05-03 21:57 | 42.20190 | -88.12514 | 34816 ft | 537 kts | 78° |
| 2026-05-03 21:58 | 42.21308 | -88.02581 | 34815 ft | 537 kts | 78° |
| 2026-05-03 21:58 | 42.22438 | -87.92608 | 34819 ft | 537 kts | 76° |
| 2026-05-03 21:59 | 42.23830 | -87.82744 | 34830 ft | 536 kts | 75° |
| 2026-05-03 21:59 | 42.25219 | -87.72940 | 34834 ft | 536 kts | 76° |
| 2026-05-03 22:00 | 42.26604 | -87.63037 | 34838 ft | 536 kts | 76° |
| 2026-05-03 22:00 | 42.27964 | -87.53198 | 34837 ft | 536 kts | 76° |
| 2026-05-03 22:01 | 42.29324 | -87.43276 | 34836 ft | 536 kts | 76° |
| 2026-05-03 22:01 | 42.30661 | -87.33443 | 34836 ft | 536 kts | 76° |
| 2026-05-03 22:02 | 42.32005 | -87.23491 | 34833 ft | 537 kts | 76° |
| 2026-05-03 22:02 | 42.33329 | -87.13599 | 34832 ft | 537 kts | 76° |
| 2026-05-03 22:03 | 42.34651 | -87.03666 | 34830 ft | 537 kts | 76° |
| 2026-05-03 22:03 | 42.35961 | -86.93747 | 34841 ft | 537 kts | 76° |
| 2026-05-03 22:04 | 42.37265 | -86.83807 | 34854 ft | 537 kts | 76° |
| 2026-05-03 22:04 | 42.38563 | -86.73844 | 34863 ft | 537 kts | 76° |
| 2026-05-03 22:05 | 42.39849 | -86.63902 | 34871 ft | 538 kts | 76° |
| 2026-05-03 22:05 | 42.41127 | -86.53942 | 34876 ft | 538 kts | 76° |
| 2026-05-03 22:06 | 42.42390 | -86.44043 | 34880 ft | 537 kts | 76° |
| 2026-05-03 22:06 | 42.43653 | -86.34066 | 34879 ft | 538 kts | 77° |
| 2026-05-03 22:07 | 42.44903 | -86.24116 | 34868 ft | 538 kts | 77° |
| 2026-05-03 22:07 | 42.46151 | -86.14108 | 34869 ft | 538 kts | 77° |
| 2026-05-03 22:08 | 42.47076 | -86.04090 | 34871 ft | 540 kts | 82° |
| 2026-05-03 22:08 | 42.47800 | -85.94009 | 34874 ft | 540 kts | 82° |
| 2026-05-03 22:09 | 42.48515 | -85.83913 | 34879 ft | 540 kts | 82° |
| 2026-05-03 22:10 | 42.49579 | -85.68703 | 34887 ft | 541 kts | 82° |
| 2026-05-03 22:10 | 42.50276 | -85.58594 | 34891 ft | 541 kts | 82° |
| 2026-05-03 22:11 | 42.50962 | -85.48511 | 34896 ft | 541 kts | 82° |
| 2026-05-03 22:11 | 42.51642 | -85.38380 | 34903 ft | 540 kts | 82° |
| 2026-05-03 22:12 | 42.52311 | -85.28275 | 34903 ft | 540 kts | 82° |
| 2026-05-03 22:12 | 42.52975 | -85.18124 | 34908 ft | 540 kts | 82° |
| 2026-05-03 22:13 | 42.53630 | -85.07962 | 34910 ft | 540 kts | 82° |
| 2026-05-03 22:13 | 42.54271 | -84.97875 | 34910 ft | 540 kts | 82° |
| 2026-05-03 22:14 | 42.54910 | -84.87698 | 34908 ft | 540 kts | 82° |
| 2026-05-03 22:14 | 42.55535 | -84.77567 | 34903 ft | 540 kts | 82° |
| 2026-05-03 22:15 | 42.56153 | -84.67418 | 34897 ft | 540 kts | 82° |
| 2026-05-03 22:15 | 42.56758 | -84.57352 | 34894 ft | 540 kts | 82° |
| 2026-05-03 22:16 | 42.57359 | -84.47176 | 34897 ft | 540 kts | 82° |
| 2026-05-03 22:16 | 42.57950 | -84.37037 | 34899 ft | 541 kts | 82° |
| 2026-05-03 22:17 | 42.58532 | -84.26887 | 34888 ft | 541 kts | 83° |
| 2026-05-03 22:17 | 42.59105 | -84.16728 | 34886 ft | 541 kts | 83° |
| 2026-05-03 22:18 | 42.59668 | -84.06588 | 34886 ft | 541 kts | 83° |
| 2026-05-03 22:18 | 42.60227 | -83.96359 | 34886 ft | 541 kts | 83° |
| 2026-05-03 22:19 | 42.60770 | -83.86258 | 34883 ft | 541 kts | 83° |
| 2026-05-03 22:19 | 42.61306 | -83.76118 | 34878 ft | 541 kts | 83° |
| 2026-05-03 22:20 | 42.61834 | -83.65964 | 34879 ft | 541 kts | 83° |
| 2026-05-03 22:20 | 42.62355 | -83.55769 | 34883 ft | 541 kts | 83° |
| 2026-05-03 22:21 | 42.62864 | -83.45612 | 34886 ft | 541 kts | 83° |
| 2026-05-03 22:21 | 42.63364 | -83.35461 | 34884 ft | 540 kts | 83° |
| 2026-05-03 22:22 | 42.63855 | -83.25338 | 34874 ft | 540 kts | 84° |
| 2026-05-03 22:22 | 42.64339 | -83.15142 | 34872 ft | 539 kts | 84° |
| 2026-05-03 22:23 | 42.64812 | -83.05009 | 34874 ft | 539 kts | 84° |
| 2026-05-03 22:23 | 42.65275 | -82.94863 | 34871 ft | 539 kts | 84° |
| 2026-05-03 22:24 | 42.65732 | -82.84659 | 34865 ft | 539 kts | 84° |
| 2026-05-03 22:24 | 42.66178 | -82.74512 | 34856 ft | 539 kts | 84° |
| 2026-05-03 22:25 | 42.66613 | -82.64397 | 34847 ft | 538 kts | 84° |
| 2026-05-03 22:25 | 42.67040 | -82.54284 | 34844 ft | 539 kts | 84° |
| 2026-05-03 22:26 | 42.67460 | -82.44124 | 34847 ft | 539 kts | 84° |
| 2026-05-03 22:26 | 42.67874 | -82.33959 | 34849 ft | 539 kts | 84° |
| 2026-05-03 22:27 | 42.69361 | -82.24100 | 34845 ft | 531 kts | 66° |
| 2026-05-03 22:27 | 42.72597 | -82.15176 | 34854 ft | 526 kts | 57° |
| 2026-05-03 22:28 | 42.76172 | -82.06530 | 34855 ft | 522 kts | 57° |
| 2026-05-03 22:28 | 42.77919 | -82.02290 | 34859 ft | 510 kts | 57° |
| 2026-05-03 22:28 | 42.79642 | -81.98100 | 34862 ft | 500 kts | 56° |
| 2026-05-03 22:29 | 42.83045 | -81.89823 | 34869 ft | 503 kts | 56° |
| 2026-05-03 22:29 | 42.86422 | -81.81578 | 34853 ft | 501 kts | 57° |
| 2026-05-03 22:30 | 42.89810 | -81.73281 | 34853 ft | 501 kts | 57° |
| 2026-05-03 22:30 | 42.93182 | -81.64995 | 34758 ft | 496 kts | 57° |
| 2026-05-03 22:30 | 42.94854 | -81.60876 | 34112 ft | 500 kts | 57° |
| 2026-05-03 22:31 | 42.96551 | -81.56695 | 33319 ft | 506 kts | 57° |
| 2026-05-03 22:31 | 42.98261 | -81.52473 | 32463 ft | 512 kts | 57° |
| 2026-05-03 22:31 | 42.99971 | -81.48247 | 31573 ft | 518 kts | 57° |
| 2026-05-03 22:31 | 43.01712 | -81.43935 | 30723 ft | 522 kts | 57° |
| 2026-05-03 22:32 | 43.03460 | -81.39596 | 30179 ft | 519 kts | 57° |
| 2026-05-03 22:32 | 43.05176 | -81.35326 | 29603 ft | 514 kts | 57° |
| 2026-05-03 22:32 | 43.06881 | -81.31080 | 29003 ft | 509 kts | 57° |
| 2026-05-03 22:32 | 43.08498 | -81.27048 | 28462 ft | 504 kts | 57° |
| 2026-05-03 22:33 | 43.10170 | -81.22872 | 27901 ft | 499 kts | 57° |
| 2026-05-03 22:33 | 43.11836 | -81.18706 | 27344 ft | 493 kts | 57° |
| 2026-05-03 22:33 | 43.13457 | -81.14646 | 26794 ft | 488 kts | 57° |
| 2026-05-03 22:33 | 43.15064 | -81.10618 | 26231 ft | 482 kts | 57° |
| 2026-05-03 22:34 | 43.16673 | -81.06580 | 25651 ft | 477 kts | 57° |
| 2026-05-03 22:34 | 43.18244 | -81.02630 | 25089 ft | 472 kts | 57° |
| 2026-05-03 22:34 | 43.19802 | -80.98711 | 24534 ft | 467 kts | 57° |
| 2026-05-03 22:34 | 43.21357 | -80.94789 | 23971 ft | 462 kts | 57° |
| 2026-05-03 22:35 | 43.22884 | -80.90937 | 23409 ft | 458 kts | 57° |
| 2026-05-03 22:35 | 43.24385 | -80.87145 | 22861 ft | 453 kts | 57° |
| 2026-05-03 22:35 | 43.25890 | -80.83337 | 22302 ft | 449 kts | 57° |
| 2026-05-03 22:35 | 43.27356 | -80.79620 | 21752 ft | 446 kts | 57° |
| 2026-05-03 22:36 | 43.28830 | -80.75883 | 21208 ft | 441 kts | 57° |
| 2026-05-03 22:36 | 43.30254 | -80.72261 | 20879 ft | 427 kts | 57° |
| 2026-05-03 22:36 | 43.31631 | -80.68752 | 20515 ft | 409 kts | 57° |
| 2026-05-03 22:36 | 43.32962 | -80.65358 | 20194 ft | 391 kts | 57° |
| 2026-05-03 22:37 | 43.34205 | -80.62183 | 19920 ft | 374 kts | 57° |
| 2026-05-03 22:37 | 43.35421 | -80.59079 | 19582 ft | 361 kts | 56° |
| 2026-05-03 22:37 | 43.36589 | -80.56099 | 19110 ft | 354 kts | 56° |
| 2026-05-03 22:37 | 43.37746 | -80.53147 | 18533 ft | 351 kts | 56° |
| 2026-05-03 22:38 | 43.38908 | -80.50180 | 18007 ft | 349 kts | 56° |
| 2026-05-03 22:38 | 43.40040 | -80.47279 | 17712 ft | 343 kts | 56° |
| 2026-05-03 22:38 | 43.41169 | -80.44384 | 17342 ft | 340 kts | 56° |
| 2026-05-03 22:38 | 43.42286 | -80.41518 | 16913 ft | 339 kts | 56° |
| 2026-05-03 22:39 | 43.43399 | -80.38656 | 16497 ft | 337 kts | 56° |
| 2026-05-03 22:39 | 43.44494 | -80.35841 | 16107 ft | 336 kts | 56° |
| 2026-05-03 22:39 | 43.45598 | -80.32996 | 15703 ft | 334 kts | 57° |
| 2026-05-03 22:39 | 43.46683 | -80.30200 | 15297 ft | 333 kts | 57° |
| 2026-05-03 22:40 | 43.47774 | -80.27382 | 14911 ft | 331 kts | 57° |
| 2026-05-03 22:40 | 43.48845 | -80.24614 | 14529 ft | 329 kts | 57° |
| 2026-05-03 22:40 | 43.49929 | -80.21810 | 14138 ft | 328 kts | 57° |
| 2026-05-03 22:40 | 43.50957 | -80.19023 | 13747 ft | 329 kts | 62° |
| 2026-05-03 22:41 | 43.51791 | -80.16112 | 13368 ft | 329 kts | 65° |
| 2026-05-03 22:41 | 43.52576 | -80.13165 | 12994 ft | 327 kts | 65° |
| 2026-05-03 22:41 | 43.53359 | -80.10208 | 12620 ft | 325 kts | 65° |
| 2026-05-03 22:41 | 43.54133 | -80.07301 | 12254 ft | 324 kts | 65° |
| 2026-05-03 22:42 | 43.54902 | -80.04411 | 11889 ft | 322 kts | 65° |
| 2026-05-03 22:42 | 43.55671 | -80.01524 | 11524 ft | 321 kts | 65° |
| 2026-05-03 22:42 | 43.56441 | -79.98629 | 11159 ft | 320 kts | 66° |
| 2026-05-03 22:42 | 43.57200 | -79.95772 | 10802 ft | 318 kts | 66° |
| 2026-05-03 22:43 | 43.57959 | -79.92911 | 10445 ft | 317 kts | 66° |
| 2026-05-03 22:43 | 43.58715 | -79.90060 | 10093 ft | 316 kts | 66° |
| 2026-05-03 22:43 | 43.59344 | -79.87152 | 9711 ft | 317 kts | 81° |
| 2026-05-03 22:43 | 43.59493 | -79.84128 | 9376 ft | 316 kts | 88° |
| 2026-05-03 22:44 | 43.59519 | -79.81094 | 9063 ft | 314 kts | 89° |
| 2026-05-03 22:44 | 43.59533 | -79.78080 | 8739 ft | 312 kts | 89° |
| 2026-05-03 22:44 | 43.59556 | -79.75127 | 8417 ft | 310 kts | 89° |
| 2026-05-03 22:44 | 43.59580 | -79.72134 | 8096 ft | 308 kts | 90° |
| 2026-05-03 22:45 | 43.59600 | -79.69185 | 7781 ft | 306 kts | 90° |
| 2026-05-03 22:45 | 43.59621 | -79.66258 | 7471 ft | 304 kts | 90° |
| 2026-05-03 22:45 | 43.59641 | -79.63369 | 7154 ft | 302 kts | 90° |
| 2026-05-03 22:45 | 43.59654 | -79.60465 | 6840 ft | 301 kts | 90° |
| 2026-05-03 22:46 | 43.59665 | -79.57594 | 6518 ft | 299 kts | 89° |
| 2026-05-03 22:46 | 43.60071 | -79.54742 | 6141 ft | 298 kts | 65° |
| 2026-05-03 22:46 | 43.61149 | -79.52368 | 5808 ft | 293 kts | 47° |
| 2026-05-03 22:46 | 43.62488 | -79.50287 | 5561 ft | 288 kts | 44° |
| 2026-05-03 22:47 | 43.63866 | -79.48254 | 5276 ft | 286 kts | 43° |
| 2026-05-03 22:47 | 43.65240 | -79.46251 | 4972 ft | 285 kts | 43° |
| 2026-05-03 22:47 | 43.66598 | -79.44276 | 4674 ft | 283 kts | 43° |
| 2026-05-03 22:47 | 43.67965 | -79.42291 | 4379 ft | 282 kts | 43° |
| 2026-05-03 22:48 | 43.69315 | -79.40341 | 4089 ft | 280 kts | 43° |
| 2026-05-03 22:48 | 43.70650 | -79.38413 | 4005 ft | 279 kts | 43° |
| 2026-05-03 22:48 | 43.72007 | -79.36457 | 3997 ft | 280 kts | 43° |
| 2026-05-03 22:48 | 43.73370 | -79.34505 | 3996 ft | 281 kts | 44° |
| 2026-05-03 22:49 | 43.74723 | -79.32573 | 3993 ft | 280 kts | 44° |
| 2026-05-03 22:49 | 43.76080 | -79.30646 | 3993 ft | 281 kts | 44° |
| 2026-05-03 22:49 | 43.77450 | -79.28706 | 3992 ft | 281 kts | 43° |
| 2026-05-03 22:49 | 43.78994 | -79.27191 | 3975 ft | 265 kts | 16° |
| 2026-05-03 22:50 | 43.80731 | -79.26863 | 3968 ft | 246 kts | 345° |
| 2026-05-03 22:50 | 43.82247 | -79.27747 | 3982 ft | 232 kts | 314° |
| 2026-05-03 22:50 | 43.83123 | -79.29505 | 3987 ft | 220 kts | 283° |
| 2026-05-03 22:50 | 43.83331 | -79.31587 | 3998 ft | 213 kts | 271° |
| 2026-05-03 22:51 | 43.83402 | -79.33578 | 3999 ft | 206 kts | 271° |
| 2026-05-03 22:51 | 43.83392 | -79.35559 | 3976 ft | 201 kts | 256° |
| 2026-05-03 22:51 | 43.82809 | -79.37264 | 3990 ft | 200 kts | 237° |
| 2026-05-03 22:51 | 43.81928 | -79.38786 | 3995 ft | 202 kts | 231° |
| 2026-05-03 22:52 | 43.80965 | -79.40218 | 3998 ft | 203 kts | 229° |
| 2026-05-03 22:52 | 43.79990 | -79.41621 | 3996 ft | 201 kts | 229° |
| 2026-05-03 22:52 | 43.79015 | -79.43035 | 3895 ft | 204 kts | 229° |
| 2026-05-03 22:52 | 43.78038 | -79.44449 | 3622 ft | 203 kts | 229° |
| 2026-05-03 22:53 | 43.77060 | -79.45867 | 3349 ft | 201 kts | 229° |
| 2026-05-03 22:53 | 43.76107 | -79.47257 | 3094 ft | 197 kts | 230° |
| 2026-05-03 22:53 | 43.75189 | -79.48593 | 2823 ft | 187 kts | 230° |
| 2026-05-03 22:53 | 43.74318 | -79.49855 | 2576 ft | 172 kts | 230° |
| 2026-05-03 22:54 | 43.73533 | -79.51005 | 2350 ft | 160 kts | 230° |
| 2026-05-03 22:54 | 43.72785 | -79.52091 | 2133 ft | 148 kts | 230° |
| 2026-05-03 22:54 | 43.72104 | -79.53084 | 1937 ft | 139 kts | 230° |
| 2026-05-03 22:54 | 43.71433 | -79.54060 | 1748 ft | 138 kts | 230° |
| 2026-05-03 22:55 | 43.70765 | -79.55031 | 1529 ft | 139 kts | 230° |
| 2026-05-03 22:55 | 43.70103 | -79.55991 | 1330 ft | 136 kts | 231° |
| 2026-05-03 22:55 | 43.69458 | -79.56929 | 1142 ft | 134 kts | 230° |
| 2026-05-03 22:55 | 43.68833 | -79.57842 | 942 ft | 128 kts | 231° |
| 2026-05-03 22:56 | 43.68210 | -79.58740 | 722 ft | 132 kts | 227° |
| 2026-05-03 22:56 | 43.67531 | -79.59673 | 617 ft | 140 kts | 232° |
| 2026-05-03 22:56 | 43.66900 | -79.60634 | 528 ft | 123 kts | 228° |
| 2026-05-03 22:56 | 43.66491 | -79.61235 | 523 ft | 42 kts | 230° |
| 2026-05-03 22:57 | 43.66390 | -79.61543 | 529 ft | 21 kts | 254° |
| 2026-05-03 22:57 | 43.66376 | -79.61656 | 531 ft | 0 kts | 277° |
| 2026-05-03 22:57 | 43.66380 | -79.61674 | 531 ft | 5 kts | 285° |
| 2026-05-03 22:57 | 43.66411 | -79.61742 | 534 ft | 11 kts | 314° |
| 2026-05-03 22:58 | 43.66476 | -79.61826 | 538 ft | 11 kts | 319° |